Terminal Aerodrome Forecast
Issued by NWS Wilmington, OH

Current Version | Previous Version | Text Only | Print | Product List | Glossary Off
Versions: 1 2 3 4 5 6 7 8 9 10 11 12 13 14 15 16 17 18

000
FTUS41 KILN 231100
TAFDAY
TAF
KDAY 231136Z 2312/2412 28007KT P6SM VCTS OVC040CB
      TEMPO 2312/2314 5SM -TSRA BR OVC025CB
     FM231500 31010KT P6SM VCTS OVC040CB
     FM231800 34010KT P6SM BKN040
     FM232300 01010KT P6SM BKN100
     FM240700 01008KT P6SM SCT100=

USA.gov is the U.S. government's official web portal to all federal, state and local government web resources and services.